Flight Track Log - Related Links

Times and Time Zones

All times are in EDT time to prevent confusion due to time zone crossing. See the SWA641 flight status page for this flight to view local times or setup timezone preferences in your user account.


Time Position Orientation Groundspeed Altitude Reporting Facility
EDT Latitude Longitude Course Direction KTS MPH feet Rate Location/Type
Wed 06:09:44 AM 38.9333 -77.5500 288° West 187 215 3,000  Level Potomac TRACON
Wed 06:11:19 AM 38.9081 -77.6617 254° West 226 260 5,000 1,665 Climbing Washington Center
Wed 06:12:19 AM 38.8919 -77.7467 256° West 245 282 7,300 2,500 Climbing Washington Center
Wed 06:13:19 AM 38.8819 -77.8397 262° West 262 302 10,000 2,150 Climbing Washington Center
Wed 06:14:19 AM 38.8886 -77.9333 275° West 277 319 11,600 2,650 Climbing Washington Center
Wed 06:15:00 AM 38.9234 -78.1267 288° West  Level FlightAware Approximate
Wed 06:15:19 AM 38.9008 -78.0483 278° West 305 351 15,300  Level Washington Center
Wed 06:16:19 AM 38.9128 -78.1689 277° West 330 380 18,400 2,850 Climbing Washington Center
Wed 06:17:19 AM 38.9247 -78.2972 277° West 354 407 21,000 2,800 Climbing Washington Center
Wed 06:18:19 AM 38.9383 -78.4311 277° West 371 427 24,000 2,750 Climbing Washington Center
Wed 06:19:19 AM 38.9517 -78.5678 277° West 383 441 26,500 2,300 Climbing Washington Center
Wed 06:20:19 AM 38.9647 -78.7125 277° West 396 456 28,600 1,900 Climbing Washington Center
Wed 06:21:19 AM 38.9753 -78.8600 275° West 407 468 30,300 2,100 Climbing Washington Center
Wed 06:22:19 AM 38.9881 -79.0047 277° West 412 474 32,800 2,400 Climbing Washington Center
Wed 06:23:19 AM 38.9983 -79.1494 275° West 412 474 35,100 2,200 Climbing Washington Center
Wed 06:24:19 AM 39.0108 -79.2864 277° West 405 466 37,200 1,600 Climbing Washington Center
Wed 06:25:19 AM 39.0214 -79.4231 276° West 398 458 38,300 1,250 Climbing Washington Center
Wed 06:26:19 AM 39.0314 -79.5600 275° West 392 451 39,700 614 Climbing Washington Center
Wed 06:28:05 AM 39.0456 -79.8067 274° West 383 441 40,000 108 Climbing Indianapolis Center
Wed 06:29:06 AM 39.0550 -79.9400 275° West 386 444 40,000  Level Indianapolis Center
Wed 06:30:06 AM 39.0642 -80.0717 275° West 382 440 40,000  Level Indianapolis Center
Wed 06:31:07 AM 39.0747 -80.2039 276° West 381 438 40,000  Level Indianapolis Center
Wed 06:32:08 AM 39.0819 -80.3389 274° West 379 436 40,000  Level Indianapolis Center
Wed 06:33:08 AM 39.0903 -80.4703 275° West 372 428 40,000  Level Indianapolis Center
Wed 06:34:09 AM 39.1336 -80.6181 291° West 373 429 40,000  Level Indianapolis Center
Wed 06:35:10 AM 39.1817 -80.7342 298° West 369 425 40,000  Level Indianapolis Center
Wed 06:36:10 AM 39.2322 -80.8503 299° West 372 428 40,000  Level Indianapolis Center
Wed 06:37:11 AM 39.2825 -80.9664 299° West 372 428 40,000  Level Indianapolis Center
Wed 06:38:12 AM 39.3328 -81.0836 299° West 375 432 40,000  Level Indianapolis Center
Wed 06:39:12 AM 39.3819 -81.1978 299° West 369 425 40,000  Level Indianapolis Center
Wed 06:40:13 AM 39.4319 -81.3156 299° West 373 429 40,000  Level Indianapolis Center
Wed 06:41:14 AM 39.4817 -81.4344 298° West 376 433 40,000  Level Indianapolis Center
Wed 06:42:14 AM 39.5311 -81.5519 299° West 375 432 40,000  Level Indianapolis Center
Wed 06:43:15 AM 39.5814 -81.6708 299° West 376 433 40,000  Level Indianapolis Center
Wed 06:44:16 AM 39.6314 -81.7892 299° West 375 432 40,000  Level Indianapolis Center
Wed 06:45:16 AM 39.6817 -81.9089 299° West 378 435 40,000  Level Indianapolis Center
Wed 06:46:18 AM 39.7342 -82.0372 298° West 376 433 40,000  Level Indianapolis Center
Wed 06:47:18 AM 39.7847 -82.1578 299° West 378 435 40,000  Level Indianapolis Center
Wed 06:48:19 AM 39.8358 -82.2800 299° West 381 438 40,000  Level Indianapolis Center
Wed 06:49:19 AM 39.8856 -82.4019 298° West 379 436 40,000  Level Indianapolis Center
Wed 06:50:20 AM 39.9356 -82.5228 298° West 376 433 40,000  Level Indianapolis Center
Wed 06:51:21 AM 39.9844 -82.6442 298° West 377 434 40,000  Level Indianapolis Center
Wed 06:52:22 AM 40.0347 -82.7664 298° West 379 436 40,000  Level Indianapolis Center
Wed 06:53:22 AM 40.0844 -82.8883 298° West 381 438 40,000  Level Indianapolis Center
Wed 06:54:23 AM 40.1331 -83.0089 298° West 376 433 40,000  Level Indianapolis Center
Wed 06:55:24 AM 40.1808 -83.1294 297° West 373 429 40,000  Level Indianapolis Center
Wed 06:56:25 AM 40.2289 -83.2500 298° West 373 429 40,000  Level Indianapolis Center
Wed 06:57:26 AM 40.2781 -83.3722 298° West 378 435 40,000 -443 Level Indianapolis Center
Wed 06:58:27 AM 40.3275 -83.4953 298° West 380 437 39,100 -885 Descending Indianapolis Center
Wed 06:59:28 AM 40.3772 -83.6219 297° West 384 442 38,200 -984 Descending Indianapolis Center
Wed 07:00:29 AM 40.4367 -83.7722 297° West 394 453 37,100 -1,082 Descending Indianapolis Center
Wed 07:01:30 AM 40.4864 -83.9003 297° West 392 451 36,000 -992 Descending Indianapolis Center
Wed 07:02:30 AM 40.5350 -84.0236 297° West 381 438 35,100 -992 Descending Indianapolis Center
Wed 07:03:31 AM 40.5831 -84.1492 297° West 381 438 34,000 -984 Descending Indianapolis Center
Wed 07:04:32 AM 40.6339 -84.2778 298° West 391 450 33,100 -984 Descending Indianapolis Center
Wed 07:05:33 AM 40.6828 -84.4061 297° West 390 449 32,000 -968 Descending Indianapolis Center
Wed 07:06:05 AM 40.7031 -84.4594 297° West 388 447 31,600 -903 Descending Chicago Center
Wed 07:07:06 AM 40.7506 -84.5819 297° West 380 437 30,600 -793 Descending Chicago Center
Wed 07:08:06 AM 40.7967 -84.7042 297° West 375 432 30,000 -496 Descending Chicago Center
Wed 07:09:07 AM 40.8519 -84.8222 302° West 382 440 29,600 -689 Descending Chicago Center
Wed 07:10:08 AM 40.9161 -84.9325 308° West 382 440 28,600 -984 Descending Chicago Center
Wed 07:11:09 AM 40.9783 -85.0431 307° West 377 434 27,600 -984 Descending Chicago Center
Wed 07:12:10 AM 41.0406 -85.1531 307° West 374 430 26,600 -1,082 Descending Chicago Center
Wed 07:13:11 AM 41.1131 -85.2839 306° West 368 423 25,400 -1,140 Descending Chicago Center
Wed 07:14:11 AM 41.1733 -85.3906 307° West 363 418 24,300 -1,041 Descending Chicago Center
Wed 07:15:12 AM 41.2308 -85.4964 306° West 354 407 23,300 -984 Descending Chicago Center
Wed 07:16:13 AM 41.2872 -85.5967 307° West 339 390 22,300 -976 Descending Chicago Center
Wed 07:17:15 AM 41.3422 -85.6964 306° West 332 382 21,300 -976 Descending Chicago Center
Wed 07:18:16 AM 41.3967 -85.7950 306° West 329 379 20,300 -934 Descending Chicago Center
Wed 07:19:17 AM 41.4492 -85.8897 307° West 318 366 19,400 -934 Descending Chicago Center
Wed 07:20:18 AM 41.5044 -85.9919 306° West 335 386 18,400 -1,426 Descending Chicago Center
Wed 07:21:19 AM 41.5253 -86.0992 285° West 299 344 16,500 -1,918 Descending Chicago Center
Wed 07:22:20 AM 41.5239 -86.2053 269° West 288 331 14,500 -2,016 Descending Chicago Center
Wed 07:23:21 AM 41.5233 -86.3083 270° West 280 322 12,400 -1,707 Descending Chicago Center
Wed 07:24:23 AM 41.5222 -86.4092 269° West 273 314 11,000 -1,171 Descending Chicago Center
Wed 07:25:24 AM 41.5217 -86.5150 270° West 284 327 10,000 -492 Descending Chicago Center
Wed 07:26:25 AM 41.5206 -86.6269 269° West 255 293 10,000  Level Chicago Center
Wed 07:27:27 AM 41.5206 -86.7186 270° West 248 285 10,000  Level Chicago Center
Wed 07:28:28 AM 41.5194 -86.8142 269° West 247 284 10,000 -148 Level Chicago Center
Wed 07:29:29 AM 41.5186 -86.9061 269° West 249 287 9,700 -878 Descending Chicago Center
Wed 07:30:31 AM 41.5175 -86.9969 269° West 247 284 8,200 -1,610 Descending Chicago Center
Wed 07:31:32 AM 41.5164 -87.0950 269° West 263 303 6,400 -1,073 Descending Chicago Center
Wed 07:32:34 AM 41.5256 -87.1867 278° West 255 293 6,000 -396 Descending Chicago Center
Wed 07:33:18 AM 41.5500 -87.2500 297° West 247 284 5,700 -545 Descending Chicago TRACON
Wed 07:35:30 AM 41.6167 -87.4333 296° West 231 266 4,400 -406 Descending Chicago TRACON
Wed 07:36:30 AM 41.6333 -87.5000 289° West 220 253 4,400 -158 Level Chicago TRACON
Wed 07:37:24 AM 41.6667 -87.5667 304° West 207 238 4,100 -423 Descending Chicago TRACON
Wed 07:37:41 AM 41.6656 -87.5864 266° West 221 254 3,900 -911 Descending Chicago Center
Wed 07:38:43 AM 41.7042 -87.6381 315° West 208 239 2,900 -1,049 Descending Chicago Center
Wed 07:39:24 AM 41.7333 -87.6667 324° Northwest 157 181 2,100 -841 Descending Chicago TRACON
Wed 07:40:30 AM 41.7500 -87.7167 294° West 119 137 1,400 -636 Descending Chicago TRACON
Wed 07:43:00 AM 41.7833 -87.7500 North  Level FlightAware Approximate

Login

Don't have an account? Register now (free) for customized features, flight alerts, and more!